createdAt,value
2019-03-20T00:00:37.108Z,10.50
2019-03-20T00:03:05.840Z,11.40
2019-03-20T00:05:34.414Z,15.70
2019-03-20T00:08:02.893Z,16.40
2019-03-20T00:10:31.581Z,22.75
2019-03-20T00:13:00.125Z,16.00
2019-03-20T00:15:28.662Z,15.78
2019-03-20T00:17:57.224Z,17.82
2019-03-20T00:20:25.835Z,13.10
2019-03-20T00:22:54.425Z,15.35
2019-03-20T00:25:23.056Z,14.38
2019-03-20T00:27:51.769Z,14.15
2019-03-20T00:30:20.950Z,17.15
2019-03-20T00:32:49.545Z,18.50
2019-03-20T00:35:18.069Z,23.27
2019-03-20T00:37:46.612Z,10.82
2019-03-20T00:40:18.562Z,27.45
2019-03-20T00:42:47.312Z,15.60
2019-03-20T00:45:22.204Z,18.27
2019-03-20T00:47:50.783Z,19.85
2019-03-20T00:50:20.153Z,13.70
2019-03-20T00:52:48.653Z,16.32
2019-03-20T00:55:17.854Z,12.33
2019-03-20T00:57:47.067Z,10.43
2019-03-20T01:00:22.896Z,13.48
2019-03-20T01:02:51.481Z,15.53
2019-03-20T01:05:21.267Z,7.15
2019-03-20T01:07:50.136Z,8.48
2019-03-20T01:10:20.930Z,20.55
2019-03-20T01:12:49.711Z,17.20
2019-03-20T01:15:18.226Z,9.48
2019-03-20T01:17:47.163Z,6.90
2019-03-20T01:20:24.493Z,12.30
2019-03-20T01:22:53.257Z,7.70
2019-03-20T01:25:22.113Z,11.00
2019-03-20T01:27:50.641Z,8.65
2019-03-20T01:30:37.959Z,6.03
2019-03-20T01:33:08.212Z,6.20
2019-03-20T01:35:36.886Z,16.73
2019-03-20T01:38:06.059Z,9.25
2019-03-20T01:40:35.005Z,9.65
2019-03-20T01:43:03.569Z,15.85
2019-03-20T01:45:32.141Z,5.92
2019-03-20T01:48:00.647Z,12.93
2019-03-20T01:50:29.365Z,11.45
2019-03-20T01:52:58.016Z,9.15
2019-03-20T01:55:26.814Z,7.15
2019-03-20T01:57:55.474Z,15.50
2019-03-20T02:00:24.105Z,8.33
2019-03-20T02:02:52.778Z,6.20
2019-03-20T02:05:21.351Z,16.17
2019-03-20T02:07:49.817Z,6.87
2019-03-20T02:10:18.499Z,19.00
2019-03-20T02:12:47.045Z,15.20
2019-03-20T02:15:17.076Z,11.75
2019-03-20T02:17:45.753Z,8.35
2019-03-20T02:20:19.021Z,3.92
2019-03-20T02:22:47.524Z,7.33
2019-03-20T02:25:16.241Z,9.73
2019-03-20T02:27:44.802Z,11.08
2019-03-20T02:30:20.378Z,15.63
2019-03-20T02:32:48.944Z,9.33
2019-03-20T02:35:17.602Z,15.30
2019-03-20T02:37:46.146Z,7.08
2019-03-20T02:40:15.607Z,9.28
2019-03-20T02:42:44.207Z,7.12
2019-03-20T02:45:14.613Z,11.25
2019-03-20T02:47:43.198Z,9.15
2019-03-20T02:50:13.355Z,10.63
2019-03-20T02:52:41.950Z,12.68
2019-03-20T02:55:14.084Z,5.42
2019-03-20T02:57:42.652Z,3.15
2019-03-20T03:00:21.146Z,7.58
2019-03-20T03:02:49.708Z,5.42
2019-03-20T03:05:18.541Z,6.78
2019-03-20T03:07:47.212Z,10.08
2019-03-20T03:10:16.985Z,5.30
2019-03-20T03:12:45.600Z,11.75
2019-03-20T03:15:15.046Z,9.60
2019-03-20T03:17:43.597Z,9.28
2019-03-20T03:20:14.374Z,7.00
2019-03-20T03:22:42.937Z,15.50
2019-03-20T03:25:13.613Z,8.68
2019-03-20T03:27:42.274Z,13.38
2019-03-20T03:30:12.953Z,5.78
2019-03-20T03:32:41.641Z,7.10
2019-03-20T03:35:15.978Z,12.45
2019-03-20T03:37:40.856Z,7.72
2019-03-20T03:40:20.317Z,11.08
2019-03-20T03:42:48.978Z,7.78
2019-03-20T03:45:17.823Z,8.58
2019-03-20T03:47:46.394Z,14.98
2019-03-20T03:50:15.798Z,10.88
2019-03-20T03:52:46.301Z,11.18
2019-03-20T03:55:15.451Z,13.95
2019-03-20T03:57:44.629Z,8.30
2019-03-20T04:00:20.100Z,9.55
2019-03-20T04:02:48.649Z,8.20
2019-03-20T04:05:17.266Z,10.35
2019-03-20T04:07:45.823Z,7.12
2019-03-20T04:10:17.962Z,22.17
2019-03-20T04:12:46.550Z,10.68
2019-03-20T04:15:15.811Z,5.28
2019-03-20T04:17:44.391Z,16.00
2019-03-20T04:20:16.812Z,10.82
2019-03-20T04:22:45.446Z,6.62
2019-03-20T04:25:14.230Z,9.75
2019-03-20T04:27:43.086Z,14.65
2019-03-20T04:30:18.647Z,10.30
2019-03-20T04:32:47.213Z,11.30
2019-03-20T04:35:16.127Z,5.85
2019-03-20T04:37:44.733Z,5.72
2019-03-20T04:40:19.662Z,6.87
2019-03-20T04:42:48.248Z,12.07
2019-03-20T04:45:17.345Z,14.45
2019-03-20T04:47:45.913Z,15.13
2019-03-20T04:50:15.486Z,8.83
2019-03-20T04:52:44.032Z,3.92
2019-03-20T04:55:12.733Z,8.83
2019-03-20T04:57:41.240Z,13.13
2019-03-20T05:00:12.712Z,9.28
2019-03-20T05:02:41.273Z,12.33
2019-03-20T05:05:09.963Z,12.03
2019-03-20T05:07:38.567Z,6.75
2019-03-20T05:10:10.349Z,9.08
2019-03-20T05:12:39.059Z,11.85
2019-03-20T05:15:10.150Z,10.85
2019-03-20T05:17:38.630Z,14.38
2019-03-20T05:20:10.523Z,7.05
2019-03-20T05:22:39.001Z,9.80
2019-03-20T05:25:08.012Z,5.55
2019-03-20T05:27:43.663Z,6.97
2019-03-20T05:30:15.956Z,11.80
2019-03-20T05:32:44.627Z,9.20
2019-03-20T05:35:13.367Z,17.85
2019-03-20T05:37:42.650Z,10.63
2019-03-20T05:40:16.869Z,5.53
2019-03-20T05:42:45.436Z,15.38
2019-03-20T05:45:16.031Z,14.93
2019-03-20T05:47:44.624Z,10.80
2019-03-20T05:50:17.020Z,11.22
2019-03-20T05:52:45.580Z,12.60
2019-03-20T05:55:14.567Z,8.98
2019-03-20T05:57:43.235Z,12.75
2019-03-20T06:00:15.118Z,9.28
2019-03-20T06:02:43.652Z,10.20
2019-03-20T06:05:20.047Z,17.62
2019-03-20T06:07:48.601Z,14.33
2019-03-20T06:10:18.030Z,12.07
2019-03-20T06:12:46.592Z,14.00
2019-03-20T06:15:15.765Z,10.70
2019-03-20T06:17:46.709Z,10.70
2019-03-20T06:20:15.136Z,14.90
2019-03-20T06:22:43.672Z,21.80
2019-03-20T06:25:13.659Z,15.90
2019-03-20T06:27:42.190Z,10.63
2019-03-20T06:30:15.398Z,9.50
2019-03-20T06:32:43.945Z,10.07
2019-03-20T06:35:12.945Z,5.97
2019-03-20T06:37:41.574Z,7.83
2019-03-20T06:40:17.090Z,11.17
2019-03-20T06:42:45.864Z,19.90
2019-03-20T06:45:16.845Z,8.87
2019-03-20T06:47:45.418Z,14.67
2019-03-20T06:50:15.715Z,11.83
2019-03-20T06:52:44.223Z,5.77
2019-03-20T06:55:12.852Z,7.93
2019-03-20T06:57:41.436Z,16.13
2019-03-20T07:00:35.645Z,14.00
2019-03-20T07:03:07.217Z,8.00
2019-03-20T07:06:03.410Z,11.73
2019-03-20T07:08:37.766Z,14.67
2019-03-20T07:11:05.317Z,10.43
2019-03-20T07:13:33.907Z,14.10
2019-03-20T07:16:02.521Z,15.00
2019-03-20T07:18:31.089Z,12.63
2019-03-20T07:20:59.587Z,7.83
2019-03-20T07:23:28.093Z,11.07
2019-03-20T07:25:56.679Z,11.77
2019-03-20T07:28:25.149Z,11.33
2019-03-20T07:30:53.689Z,18.13
2019-03-20T07:33:22.216Z,10.77
2019-03-20T07:35:50.762Z,12.33
2019-03-20T07:38:19.253Z,19.03
2019-03-20T07:40:47.731Z,4.97
2019-03-20T07:43:17.768Z,9.07
2019-03-20T07:45:46.244Z,17.10
2019-03-20T07:48:21.942Z,13.33
2019-03-20T07:50:45.034Z,10.63
2019-03-20T07:53:13.646Z,8.17
2019-03-20T07:55:42.169Z,5.57
2019-03-20T07:58:12.846Z,9.20
2019-03-20T08:00:41.548Z,11.60
2019-03-20T08:03:10.076Z,14.53
2019-03-20T08:05:38.643Z,11.47
2019-03-20T08:08:07.959Z,14.13
2019-03-20T08:10:37.179Z,12.00
2019-03-20T08:13:05.792Z,10.60
2019-03-20T08:15:34.349Z,12.17
2019-03-20T08:18:02.924Z,9.13
2019-03-20T08:20:31.769Z,23.43
2019-03-20T08:23:00.438Z,7.77
2019-03-20T08:25:28.990Z,10.97
2019-03-20T08:27:57.598Z,13.37
2019-03-20T08:30:26.147Z,15.60
2019-03-20T08:32:54.653Z,12.27
2019-03-20T08:35:23.130Z,12.53
2019-03-20T08:37:51.717Z,8.93
2019-03-20T08:40:20.423Z,14.40
2019-03-20T08:42:48.934Z,7.23
2019-03-20T08:45:18.543Z,9.23
2019-03-20T08:47:47.330Z,13.47
2019-03-20T08:50:18.983Z,15.37
2019-03-20T08:52:47.880Z,14.23
2019-03-20T08:55:20.645Z,14.23
2019-03-20T08:57:49.394Z,8.33
2019-03-20T09:00:21.692Z,13.40
2019-03-20T09:02:50.730Z,10.30
2019-03-20T09:05:19.443Z,10.93
2019-03-20T09:07:48.179Z,6.80
2019-03-20T09:10:26.831Z,13.73
2019-03-20T09:12:55.476Z,14.63
2019-03-20T09:15:24.159Z,8.10
2019-03-20T09:17:52.705Z,12.20
2019-03-20T09:20:22.196Z,7.33
2019-03-20T09:22:50.743Z,9.93
2019-03-20T09:25:24.058Z,9.13
2019-03-20T09:27:52.528Z,9.47
2019-03-20T09:30:23.110Z,9.87
2019-03-20T09:32:51.917Z,10.30
2019-03-20T09:35:20.778Z,8.23
2019-03-20T09:37:52.282Z,12.20
2019-03-20T09:40:23.920Z,17.63
2019-03-20T09:42:52.664Z,11.97
2019-03-20T09:45:22.369Z,9.40
2019-03-20T09:47:50.964Z,11.60
2019-03-20T09:50:20.701Z,11.27
2019-03-20T09:52:50.176Z,12.90
2019-03-20T09:55:18.898Z,9.50
2019-03-20T09:57:47.552Z,9.30
2019-03-20T10:00:26.266Z,10.93
2019-03-20T10:02:55.143Z,7.93
2019-03-20T10:05:43.032Z,11.80
2019-03-20T10:08:11.548Z,8.97
2019-03-20T10:10:40.002Z,10.93
2019-03-20T10:13:08.498Z,10.40
2019-03-20T10:15:37.053Z,11.03
2019-03-20T10:18:05.657Z,9.13
2019-03-20T10:20:34.205Z,5.87
2019-03-20T10:23:02.715Z,13.57
2019-03-20T10:25:31.361Z,13.50
2019-03-20T10:27:59.903Z,8.97
2019-03-20T10:30:29.595Z,15.10
2019-03-20T10:32:58.187Z,17.33
2019-03-20T10:35:31.259Z,20.90
2019-03-20T10:37:59.810Z,12.23
2019-03-20T10:40:28.768Z,10.30
2019-03-20T10:42:57.284Z,15.53
2019-03-20T10:45:25.868Z,13.07
2019-03-20T10:47:54.421Z,15.73
2019-03-20T10:50:26.933Z,8.83
2019-03-20T10:52:55.453Z,10.73
2019-03-20T10:55:24.404Z,14.70
2019-03-20T10:57:53.030Z,11.90
2019-03-20T11:00:26.733Z,9.90
2019-03-20T11:02:55.300Z,12.60
2019-03-20T11:05:23.899Z,10.90
2019-03-20T11:07:52.571Z,14.90
2019-03-20T11:10:30.321Z,11.47
2019-03-20T11:12:58.856Z,9.80
2019-03-20T11:15:29.568Z,13.57
2019-03-20T11:17:57.728Z,9.13
2019-03-20T11:20:26.452Z,8.23
2019-03-20T11:22:55.028Z,10.60
2019-03-20T11:25:27.226Z,12.07
2019-03-20T11:27:55.778Z,13.30
2019-03-20T11:30:33.977Z,9.20
2019-03-20T11:33:02.489Z,11.37
2019-03-20T11:35:31.051Z,7.33
2019-03-20T11:37:59.660Z,7.70
2019-03-20T11:40:29.782Z,11.40
2019-03-20T11:42:58.279Z,7.30
2019-03-20T11:45:26.920Z,6.67
2019-03-20T11:47:55.548Z,11.33
2019-03-20T11:50:38.273Z,10.30
2019-03-20T11:53:08.858Z,8.43
2019-03-20T11:55:38.097Z,7.90
2019-03-20T11:58:07.498Z,8.87
2019-03-20T12:00:36.195Z,9.57
2019-03-20T12:03:05.229Z,10.07
2019-03-20T12:05:33.782Z,13.30
2019-03-20T12:08:02.683Z,10.20
2019-03-20T12:10:32.436Z,11.27
2019-03-20T12:13:00.981Z,16.10
2019-03-20T12:15:29.590Z,13.13
2019-03-20T12:17:58.144Z,16.30
2019-03-20T12:20:26.902Z,14.20
2019-03-20T12:22:55.462Z,13.20
2019-03-20T12:25:31.801Z,14.03
2019-03-20T12:28:00.469Z,10.53
2019-03-20T12:30:34.045Z,13.47
2019-03-20T12:33:02.883Z,13.13
2019-03-20T12:35:36.464Z,14.43
2019-03-20T12:38:14.173Z,14.63
2019-03-20T12:40:35.516Z,11.27
2019-03-20T12:43:04.903Z,17.20
2019-03-20T12:45:37.256Z,10.80
2019-03-20T12:48:07.316Z,16.30
2019-03-20T12:50:35.920Z,12.93
2019-03-20T12:53:06.646Z,13.30
2019-03-20T12:55:35.271Z,12.77
2019-03-20T12:58:03.851Z,12.73
2019-03-20T13:00:32.438Z,16.00
2019-03-20T13:03:01.038Z,14.30
2019-03-20T13:05:29.597Z,15.37
2019-03-20T13:08:05.430Z,13.70
2019-03-20T13:10:28.698Z,14.63
2019-03-20T13:12:57.191Z,12.13
2019-03-20T13:15:26.725Z,12.70
2019-03-20T13:17:56.583Z,17.80
2019-03-20T13:20:25.123Z,17.03
2019-03-20T13:23:16.282Z,19.50
2019-03-20T13:25:44.828Z,21.33
2019-03-20T13:28:13.460Z,18.13
2019-03-20T13:30:59.962Z,13.53
2019-03-20T13:33:28.544Z,16.43
2019-03-20T13:35:57.100Z,12.53
2019-03-20T13:38:25.706Z,17.27
2019-03-20T13:40:57.386Z,15.60
2019-03-20T13:43:26.088Z,18.00
2019-03-20T13:45:56.222Z,28.37
2019-03-20T13:48:28.098Z,17.43
2019-03-20T13:50:56.755Z,25.30
2019-03-20T13:53:25.286Z,22.77
2019-03-20T13:55:54.020Z,17.17
2019-03-20T13:58:22.596Z,16.17
2019-03-20T14:00:51.128Z,17.87
2019-03-20T14:03:19.864Z,17.10
2019-03-20T14:05:48.440Z,22.03
2019-03-20T14:08:16.973Z,13.73
2019-03-20T14:10:50.450Z,17.87
2019-03-20T14:13:15.783Z,18.40
2019-03-20T14:15:44.423Z,19.40
2019-03-20T14:18:12.976Z,24.47
2019-03-20T14:20:41.549Z,22.07
2019-03-20T14:23:10.034Z,24.23
2019-03-20T14:25:38.569Z,18.67
2019-03-20T14:28:07.208Z,20.47
2019-03-20T14:30:35.735Z,23.43
2019-03-20T14:33:04.349Z,13.93
2019-03-20T14:35:32.873Z,14.83
2019-03-20T14:38:01.428Z,19.57
2019-03-20T14:40:36.002Z,18.13
2019-03-20T14:43:02.380Z,19.70
2019-03-20T14:45:31.173Z,16.73
2019-03-20T14:47:59.726Z,19.30
2019-03-20T14:50:30.407Z,17.60
2019-03-20T14:52:59.083Z,22.77
2019-03-20T14:55:27.997Z,21.10
2019-03-20T14:57:56.583Z,18.70
2019-03-20T15:00:31.281Z,16.70
2019-03-20T15:03:00.214Z,18.10
2019-03-20T15:05:28.858Z,21.20
2019-03-20T15:07:57.443Z,16.07
2019-03-20T15:10:27.102Z,15.20
2019-03-20T15:12:56.119Z,11.90
2019-03-20T15:15:39.851Z,13.67
2019-03-20T15:18:08.569Z,12.83
2019-03-20T15:20:37.302Z,17.57
2019-03-20T15:23:06.265Z,21.13
2019-03-20T15:25:34.756Z,18.03
2019-03-20T15:28:03.467Z,13.70
2019-03-20T15:30:32.057Z,13.33
2019-03-20T15:33:00.591Z,21.90
2019-03-20T15:35:29.152Z,19.07
2019-03-20T15:37:57.820Z,28.13
2019-03-20T15:40:28.159Z,14.20
2019-03-20T15:42:56.747Z,16.03
2019-03-20T15:45:25.478Z,15.37
2019-03-20T15:47:54.019Z,14.60
2019-03-20T15:50:28.892Z,16.70
2019-03-20T15:52:57.551Z,14.13
2019-03-20T15:55:29.268Z,12.53
2019-03-20T15:57:57.939Z,16.93
2019-03-20T16:00:26.582Z,15.10
2019-03-20T16:03:03.812Z,18.10
2019-03-20T16:05:32.406Z,9.10
2019-03-20T16:08:02.653Z,10.60
2019-03-20T16:10:31.193Z,10.13
2019-03-20T16:12:59.768Z,16.13
2019-03-20T16:15:28.457Z,13.23
2019-03-20T16:17:57.096Z,20.10
2019-03-20T16:20:25.680Z,16.13
2019-03-20T16:22:54.340Z,14.33
2019-03-20T16:25:24.092Z,11.93
2019-03-20T16:27:52.638Z,17.63
2019-03-20T16:30:28.239Z,16.33
2019-03-20T16:32:56.969Z,14.07
2019-03-20T16:35:25.578Z,27.97
2019-03-20T16:37:54.171Z,23.97
2019-03-20T16:40:30.673Z,11.23
2019-03-20T16:42:59.259Z,16.63
2019-03-20T16:45:30.327Z,20.73
2019-03-20T16:47:58.978Z,15.33
2019-03-20T16:50:27.661Z,16.93
2019-03-20T16:52:56.300Z,15.27
2019-03-20T16:55:24.957Z,19.33
2019-03-20T16:57:53.596Z,17.43
2019-03-20T17:00:30.241Z,15.10
2019-03-20T17:02:58.870Z,17.90
2019-03-20T17:05:28.430Z,19.33
2019-03-20T17:07:57.078Z,16.37
2019-03-20T17:10:31.052Z,21.00
2019-03-20T17:13:00.442Z,14.37
2019-03-20T17:15:36.468Z,13.97
2019-03-20T17:18:06.163Z,14.57
2019-03-20T17:20:34.876Z,15.63
2019-03-20T17:23:03.533Z,11.80
2019-03-20T17:25:32.231Z,14.93
2019-03-20T17:28:00.854Z,16.80
2019-03-20T17:30:34.605Z,12.10
2019-03-20T17:33:03.283Z,20.07
2019-03-20T17:35:31.896Z,16.60
2019-03-20T17:38:00.503Z,14.13
2019-03-20T17:40:29.546Z,17.33
2019-03-20T17:43:00.204Z,13.53
2019-03-20T17:45:29.998Z,9.93
2019-03-20T17:48:02.562Z,16.80
2019-03-20T17:51:04.821Z,17.90
2019-03-20T17:53:33.464Z,12.43
2019-03-20T17:56:02.772Z,15.60
2019-03-20T17:58:31.434Z,20.43
2019-03-20T18:01:00.867Z,18.33
2019-03-20T18:03:29.535Z,19.10
2019-03-20T18:05:58.097Z,25.37
2019-03-20T18:08:26.719Z,17.70
2019-03-20T18:10:55.321Z,25.97
2019-03-20T18:13:23.892Z,21.97
2019-03-20T18:15:52.482Z,15.80
2019-03-20T18:18:21.074Z,20.43
2019-03-20T18:20:49.779Z,17.27
2019-03-20T18:23:18.403Z,14.20
2019-03-20T18:25:47.390Z,25.87
2019-03-20T18:28:16.013Z,15.60
2019-03-20T18:30:44.608Z,19.10
2019-03-20T18:33:13.293Z,15.03
2019-03-20T18:35:41.950Z,17.00
2019-03-20T18:38:11.784Z,15.27
2019-03-20T18:40:42.130Z,15.03
2019-03-20T18:43:14.333Z,12.03
2019-03-20T18:45:45.314Z,13.50
2019-03-20T18:48:14.018Z,16.20
2019-03-20T18:50:42.679Z,20.47
2019-03-20T18:53:11.336Z,13.80
2019-03-20T18:55:39.957Z,11.30
2019-03-20T18:58:08.593Z,14.20
2019-03-20T19:00:38.697Z,13.30
2019-03-20T19:03:16.494Z,13.27
2019-03-20T19:06:06.257Z,8.97
2019-03-20T19:08:34.906Z,10.00
2019-03-20T19:11:05.019Z,11.87
2019-03-20T19:13:35.168Z,12.53
2019-03-20T19:16:04.706Z,8.67
2019-03-20T19:18:35.997Z,9.80
2019-03-20T19:21:04.857Z,14.37
2019-03-20T19:23:35.162Z,9.90
2019-03-20T19:26:03.897Z,10.73
2019-03-20T19:28:34.641Z,12.03
2019-03-20T19:31:04.198Z,12.17
2019-03-20T19:33:36.741Z,19.63
2019-03-20T19:36:05.403Z,8.30
2019-03-20T19:38:35.223Z,7.50
2019-03-20T19:41:05.162Z,12.23
2019-03-20T19:43:34.761Z,10.40
2019-03-20T19:46:03.473Z,5.90
2019-03-20T19:48:32.093Z,7.03
2019-03-20T19:51:01.087Z,12.67
2019-03-20T19:53:31.746Z,10.80
2019-03-20T19:56:02.539Z,6.30
2019-03-20T19:58:31.192Z,7.60
2019-03-20T20:00:59.928Z,10.43
2019-03-20T20:03:28.546Z,7.50
2019-03-20T20:05:58.673Z,10.03
2019-03-20T20:08:27.284Z,11.03
2019-03-20T20:10:56.057Z,10.03
2019-03-20T20:13:24.699Z,11.30
2019-03-20T20:15:54.284Z,5.90
2019-03-20T20:18:22.883Z,6.67
2019-03-20T20:20:51.490Z,7.87
2019-03-20T20:23:20.121Z,12.97
2019-03-20T20:25:49.215Z,8.57
2019-03-20T20:28:19.211Z,7.40
2019-03-20T20:30:47.822Z,9.27
2019-03-20T20:33:16.518Z,7.47
2019-03-20T20:35:45.078Z,9.30
2019-03-20T20:38:13.689Z,6.70
2019-03-20T20:41:01.682Z,9.03
2019-03-20T20:43:31.550Z,10.73
2019-03-20T20:46:00.111Z,11.63
2019-03-20T20:48:28.711Z,8.80
2019-03-20T20:50:57.333Z,11.43
2019-03-20T20:53:30.068Z,10.87
2019-03-20T20:55:58.773Z,10.03
2019-03-20T20:58:27.352Z,6.80
2019-03-20T21:00:55.967Z,7.37
2019-03-20T21:03:24.581Z,7.87
2019-03-20T21:05:53.163Z,7.73
2019-03-20T21:08:21.745Z,10.33
2019-03-20T21:10:50.491Z,8.97
2019-03-20T21:13:19.091Z,9.30
2019-03-20T21:15:48.002Z,13.90
2019-03-20T21:18:44.829Z,9.87
2019-03-20T21:21:14.593Z,10.83
2019-03-20T21:24:19.625Z,7.60
2019-03-20T21:27:06.211Z,8.43
2019-03-20T21:30:09.778Z,7.57
2019-03-20T21:32:47.425Z,8.43
2019-03-20T21:35:42.056Z,12.60
2019-03-20T21:38:12.048Z,11.40
2019-03-20T21:40:43.741Z,15.23
2019-03-20T21:43:37.998Z,11.43
2019-03-20T21:46:12.447Z,13.73
2019-03-20T21:48:41.019Z,12.20
2019-03-20T21:51:16.651Z,13.57
2019-03-20T21:53:57.510Z,24.37
2019-03-20T21:56:35.050Z,11.20
2019-03-20T21:59:29.328Z,16.63
2019-03-20T22:02:00.962Z,18.40
2019-03-20T22:04:29.443Z,14.00
2019-03-20T22:07:11.485Z,18.00
2019-03-20T22:09:52.230Z,15.40
2019-03-20T22:12:26.702Z,18.70
2019-03-20T22:14:58.360Z,18.03
2019-03-20T22:17:50.805Z,13.93
2019-03-20T22:20:37.760Z,13.93
2019-03-20T22:23:36.339Z,14.60
2019-03-20T22:26:24.669Z,14.33
2019-03-20T22:29:17.087Z,24.57
2019-03-20T22:31:48.743Z,13.57
2019-03-20T22:34:53.729Z,15.07
2019-03-20T22:37:22.289Z,24.40
2019-03-20T22:40:14.845Z,17.80
2019-03-20T22:43:10.821Z,19.43
2019-03-20T22:46:14.428Z,20.07
2019-03-20T22:49:02.427Z,20.93
2019-03-20T22:51:56.529Z,22.47
2019-03-20T22:55:01.226Z,21.70
2019-03-20T22:57:41.961Z,21.67
2019-03-20T23:00:10.795Z,33.70
2019-03-20T23:02:51.070Z,23.27
2019-03-20T23:05:19.633Z,22.60
2019-03-20T23:07:48.197Z,27.57
2019-03-20T23:10:17.787Z,23.73
2019-03-20T23:12:46.363Z,21.10
2019-03-20T23:15:17.588Z,21.83
2019-03-20T23:17:46.171Z,17.07
2019-03-20T23:20:24.013Z,22.10
2019-03-20T23:22:52.646Z,23.37
2019-03-20T23:25:21.194Z,25.00
2019-03-20T23:27:49.713Z,21.87
2019-03-20T23:30:29.542Z,23.90
2019-03-20T23:32:58.123Z,23.83
2019-03-20T23:35:26.680Z,30.37
2019-03-20T23:37:55.255Z,26.97
2019-03-20T23:40:23.895Z,30.40
2019-03-20T23:43:04.129Z,29.77
2019-03-20T23:45:32.724Z,22.47
2019-03-20T23:48:04.700Z,32.43
2019-03-20T23:50:33.303Z,29.73
2019-03-20T23:53:01.867Z,28.07
2019-03-20T23:55:30.473Z,30.97
2019-03-20T23:57:59.002Z,27.90
